sensor_id;sensor_type;location;lat;lon;timestamp;pressure;altitude;pressure_sealevel;temperature;humidity
47913;BME280;33676;51.006;17.180;2023-06-26T00:02:04;100278.52;;;16.15;81.58
47913;BME280;33676;51.006;17.180;2023-06-26T00:04:32;100277.69;;;16.13;81.98
47913;BME280;33676;51.006;17.180;2023-06-26T00:07:01;100276.50;;;16.11;82.19
47913;BME280;33676;51.006;17.180;2023-06-26T00:09:29;100277.05;;;16.07;82.10
47913;BME280;33676;51.006;17.180;2023-06-26T00:11:58;100273.63;;;16.01;82.17
47913;BME280;33676;51.006;17.180;2023-06-26T00:14:29;100276.06;;;15.95;82.32
47913;BME280;33676;51.006;17.180;2023-06-26T00:16:57;100278.94;;;15.86;82.30
47913;BME280;33676;51.006;17.180;2023-06-26T00:19:26;100274.38;;;15.80;82.33
47913;BME280;33676;51.006;17.180;2023-06-26T00:21:54;100275.23;;;15.74;82.55
47913;BME280;33676;51.006;17.180;2023-06-26T00:24:23;100274.10;;;15.70;82.52
47913;BME280;33676;51.006;17.180;2023-06-26T00:26:51;100276.11;;;15.66;82.80
47913;BME280;33676;51.006;17.180;2023-06-26T00:29:20;100275.11;;;15.61;82.87
47913;BME280;33676;51.006;17.180;2023-06-26T00:31:48;100275.43;;;15.59;83.06
47913;BME280;33676;51.006;17.180;2023-06-26T00:34:17;100273.39;;;15.54;83.19
47913;BME280;33676;51.006;17.180;2023-06-26T00:36:46;100273.31;;;15.49;83.18
47913;BME280;33676;51.006;17.180;2023-06-26T00:39:15;100272.70;;;15.45;83.33
47913;BME280;33676;51.006;17.180;2023-06-26T00:41:43;100267.89;;;15.42;83.44
47913;BME280;33676;51.006;17.180;2023-06-26T00:44:12;100269.58;;;15.39;83.65
47913;BME280;33676;51.006;17.180;2023-06-26T00:46:41;100267.95;;;15.38;83.83
47913;BME280;33676;51.006;17.180;2023-06-26T00:49:09;100259.63;;;15.35;83.93
47913;BME280;33676;51.006;17.180;2023-06-26T00:51:38;100261.79;;;15.33;83.94
47913;BME280;33676;51.006;17.180;2023-06-26T00:54:06;100256.80;;;15.29;83.85
47913;BME280;33676;51.006;17.180;2023-06-26T00:56:36;100258.13;;;15.27;83.86
47913;BME280;33676;51.006;17.180;2023-06-26T00:59:05;100253.41;;;15.24;84.08
47913;BME280;33676;51.006;17.180;2023-06-26T01:01:33;100254.80;;;15.22;84.26
47913;BME280;33676;51.006;17.180;2023-06-26T01:04:02;100251.87;;;15.18;84.34
47913;BME280;33676;51.006;17.180;2023-06-26T01:06:32;100251.80;;;15.14;84.29
47913;BME280;33676;51.006;17.180;2023-06-26T01:09:04;100249.71;;;15.10;84.23
47913;BME280;33676;51.006;17.180;2023-06-26T01:11:32;100250.02;;;15.05;84.21
47913;BME280;33676;51.006;17.180;2023-06-26T01:14:01;100246.39;;;15.01;84.30
47913;BME280;33676;51.006;17.180;2023-06-26T01:16:30;100247.00;;;14.97;84.54
47913;BME280;33676;51.006;17.180;2023-06-26T01:18:59;100248.66;;;14.92;84.54
47913;BME280;33676;51.006;17.180;2023-06-26T01:21:28;100249.86;;;14.87;84.70
47913;BME280;33676;51.006;17.180;2023-06-26T01:24:17;100251.98;;;14.83;84.75
47913;BME280;33676;51.006;17.180;2023-06-26T01:26:50;100249.64;;;14.80;84.74
47913;BME280;33676;51.006;17.180;2023-06-26T01:29:20;100246.15;;;14.78;84.87
47913;BME280;33676;51.006;17.180;2023-06-26T01:31:51;100246.23;;;14.77;85.21
47913;BME280;33676;51.006;17.180;2023-06-26T01:34:20;100249.04;;;14.77;85.64
47913;BME280;33676;51.006;17.180;2023-06-26T01:36:49;100248.65;;;14.78;85.90
47913;BME280;33676;51.006;17.180;2023-06-26T01:39:19;100248.52;;;14.77;85.92
47913;BME280;33676;51.006;17.180;2023-06-26T01:41:47;100243.30;;;14.75;85.88
47913;BME280;33676;51.006;17.180;2023-06-26T01:44:26;100239.15;;;14.72;85.84
47913;BME280;33676;51.006;17.180;2023-06-26T01:47:04;100244.88;;;14.69;85.84
47913;BME280;33676;51.006;17.180;2023-06-26T01:50:14;100240.56;;;14.67;85.88
47913;BME280;33676;51.006;17.180;2023-06-26T01:52:58;100239.27;;;14.64;85.91
47913;BME280;33676;51.006;17.180;2023-06-26T01:55:46;100236.98;;;14.60;86.03
47913;BME280;33676;51.006;17.180;2023-06-26T01:58:15;100232.73;;;14.55;86.02
47913;BME280;33676;51.006;17.180;2023-06-26T02:00:45;100228.39;;;14.50;85.93
47913;BME280;33676;51.006;17.180;2023-06-26T02:03:14;100225.54;;;14.47;86.05
47913;BME280;33676;51.006;17.180;2023-06-26T02:05:42;100229.61;;;14.43;86.11
47913;BME280;33676;51.006;17.180;2023-06-26T02:08:14;100227.40;;;14.40;86.16
47913;BME280;33676;51.006;17.180;2023-06-26T02:23:16;100226.27;;;14.22;86.40
47913;BME280;33676;51.006;17.180;2023-06-26T02:25:45;100226.61;;;14.17;86.55
47913;BME280;33676;51.006;17.180;2023-06-26T02:28:13;100226.00;;;14.16;86.70
47913;BME280;33676;51.006;17.180;2023-06-26T02:30:41;100231.50;;;14.15;86.72
47913;BME280;33676;51.006;17.180;2023-06-26T02:33:11;100231.77;;;14.14;86.66
47913;BME280;33676;51.006;17.180;2023-06-26T02:35:39;100233.31;;;14.13;86.87
47913;BME280;33676;51.006;17.180;2023-06-26T02:38:08;100237.25;;;14.12;86.96
47913;BME280;33676;51.006;17.180;2023-06-26T02:40:36;100234.67;;;14.10;87.02
47913;BME280;33676;51.006;17.180;2023-06-26T02:43:06;100240.90;;;14.09;87.12
47913;BME280;33676;51.006;17.180;2023-06-26T02:45:34;100244.12;;;14.08;87.19
47913;BME280;33676;51.006;17.180;2023-06-26T02:48:03;100246.64;;;14.08;87.31
47913;BME280;33676;51.006;17.180;2023-06-26T02:50:32;100241.77;;;14.07;87.41
47913;BME280;33676;51.006;17.180;2023-06-26T02:53:00;100241.67;;;14.08;87.62
47913;BME280;33676;51.006;17.180;2023-06-26T02:55:29;100238.20;;;14.08;87.61
47913;BME280;33676;51.006;17.180;2023-06-26T02:57:57;100239.29;;;14.07;87.58
47913;BME280;33676;51.006;17.180;2023-06-26T03:00:25;100238.45;;;14.07;87.64
47913;BME280;33676;51.006;17.180;2023-06-26T03:02:54;100237.83;;;14.06;87.83
47913;BME280;33676;51.006;17.180;2023-06-26T03:05:23;100237.05;;;14.05;87.94
47913;BME280;33676;51.006;17.180;2023-06-26T03:07:52;100237.77;;;14.05;88.23
47913;BME280;33676;51.006;17.180;2023-06-26T03:10:20;100237.46;;;14.04;88.56
47913;BME280;33676;51.006;17.180;2023-06-26T03:12:49;100240.98;;;14.04;88.63
47913;BME280;33676;51.006;17.180;2023-06-26T03:15:17;100239.77;;;14.04;88.90
47913;BME280;33676;51.006;17.180;2023-06-26T03:17:47;100237.56;;;14.04;88.87
47913;BME280;33676;51.006;17.180;2023-06-26T03:20:16;100232.55;;;14.03;88.99
47913;BME280;33676;51.006;17.180;2023-06-26T03:22:44;100232.16;;;14.03;89.03
47913;BME280;33676;51.006;17.180;2023-06-26T03:25:13;100230.72;;;14.05;89.26
47913;BME280;33676;51.006;17.180;2023-06-26T03:27:41;100226.98;;;14.07;89.46
47913;BME280;33676;51.006;17.180;2023-06-26T03:30:12;100226.85;;;14.09;89.38
47913;BME280;33676;51.006;17.180;2023-06-26T03:32:40;100222.19;;;14.10;89.40
47913;BME280;33676;51.006;17.180;2023-06-26T03:35:09;100219.80;;;14.13;89.65
47913;BME280;33676;51.006;17.180;2023-06-26T03:37:37;100221.70;;;14.17;89.80
47913;BME280;33676;51.006;17.180;2023-06-26T03:40:07;100221.95;;;14.22;90.04
47913;BME280;33676;51.006;17.180;2023-06-26T03:42:35;100221.86;;;14.26;90.15
47913;BME280;33676;51.006;17.180;2023-06-26T03:45:04;100222.59;;;14.32;90.36
47913;BME280;33676;51.006;17.180;2023-06-26T03:47:33;100218.85;;;14.38;90.52
47913;BME280;33676;51.006;17.180;2023-06-26T03:50:02;100219.86;;;14.44;90.60
47913;BME280;33676;51.006;17.180;2023-06-26T03:52:31;100223.11;;;14.50;90.91
47913;BME280;33676;51.006;17.180;2023-06-26T03:55:00;100222.93;;;14.56;90.95
47913;BME280;33676;51.006;17.180;2023-06-26T03:57:29;100219.50;;;14.63;91.12
47913;BME280;33676;51.006;17.180;2023-06-26T03:59:57;100219.47;;;14.68;91.19
47913;BME280;33676;51.006;17.180;2023-06-26T04:02:26;100219.27;;;14.74;91.31
47913;BME280;33676;51.006;17.180;2023-06-26T04:04:54;100215.16;;;14.80;91.46
47913;BME280;33676;51.006;17.180;2023-06-26T04:07:24;100213.30;;;14.85;91.59
47913;BME280;33676;51.006;17.180;2023-06-26T04:09:53;100217.95;;;14.91;91.60
47913;BME280;33676;51.006;17.180;2023-06-26T04:12:21;100215.50;;;14.98;91.93
47913;BME280;33676;51.006;17.180;2023-06-26T04:14:50;100212.66;;;15.06;92.17
47913;BME280;33676;51.006;17.180;2023-06-26T04:17:19;100212.31;;;15.12;92.29
47913;BME280;33676;51.006;17.180;2023-06-26T04:19:48;100212.14;;;15.21;92.61
47913;BME280;33676;51.006;17.180;2023-06-26T04:22:16;100213.14;;;15.29;92.67
47913;BME280;33676;51.006;17.180;2023-06-26T04:24:45;100217.38;;;15.38;92.91
47913;BME280;33676;51.006;17.180;2023-06-26T04:27:14;100218.06;;;15.47;93.05
47913;BME280;33676;51.006;17.180;2023-06-26T04:29:42;100215.14;;;15.55;93.13
47913;BME280;33676;51.006;17.180;2023-06-26T04:32:11;100216.61;;;15.63;93.41
47913;BME280;33676;51.006;17.180;2023-06-26T04:34:39;100215.29;;;15.71;93.50
47913;BME280;33676;51.006;17.180;2023-06-26T04:37:11;100213.98;;;15.80;93.66
47913;BME280;33676;51.006;17.180;2023-06-26T04:39:39;100212.59;;;15.89;93.74
47913;BME280;33676;51.006;17.180;2023-06-26T04:42:08;100208.28;;;15.99;93.96
47913;BME280;33676;51.006;17.180;2023-06-26T04:44:38;100208.74;;;16.10;94.00
47913;BME280;33676;51.006;17.180;2023-06-26T04:47:08;100207.55;;;16.19;94.22
47913;BME280;33676;51.006;17.180;2023-06-26T04:49:36;100207.45;;;16.29;94.22
47913;BME280;33676;51.006;17.180;2023-06-26T04:52:07;100203.56;;;16.39;94.24
47913;BME280;33676;51.006;17.180;2023-06-26T04:54:35;100205.83;;;16.49;94.25
47913;BME280;33676;51.006;17.180;2023-06-26T04:57:04;100209.02;;;16.60;94.44
47913;BME280;33676;51.006;17.180;2023-06-26T04:59:32;100203.16;;;16.70;94.43
47913;BME280;33676;51.006;17.180;2023-06-26T05:02:01;100207.34;;;16.82;94.63
47913;BME280;33676;51.006;17.180;2023-06-26T05:04:29;100204.44;;;16.93;94.64
47913;BME280;33676;51.006;17.180;2023-06-26T05:06:58;100201.08;;;17.05;94.73
47913;BME280;33676;51.006;17.180;2023-06-26T05:09:26;100206.98;;;17.15;94.90
47913;BME280;33676;51.006;17.180;2023-06-26T05:11:55;100205.70;;;17.27;95.22
47913;BME280;33676;51.006;17.180;2023-06-26T05:14:23;100208.42;;;17.40;95.33
47913;BME280;33676;51.006;17.180;2023-06-26T05:16:52;100204.92;;;17.51;95.64
47913;BME280;33676;51.006;17.180;2023-06-26T05:19:21;100205.95;;;17.63;95.61
47913;BME280;33676;51.006;17.180;2023-06-26T05:21:50;100209.42;;;17.74;95.70
47913;BME280;33676;51.006;17.180;2023-06-26T05:24:19;100206.83;;;17.87;95.77
47913;BME280;33676;51.006;17.180;2023-06-26T05:26:52;100208.70;;;18.00;95.80
47913;BME280;33676;51.006;17.180;2023-06-26T05:29:20;100208.15;;;18.13;95.77
47913;BME280;33676;51.006;17.180;2023-06-26T05:31:50;100206.89;;;18.26;95.80
47913;BME280;33676;51.006;17.180;2023-06-26T05:34:22;100205.59;;;18.39;95.83
47913;BME280;33676;51.006;17.180;2023-06-26T05:36:51;100202.10;;;18.51;95.83
47913;BME280;33676;51.006;17.180;2023-06-26T05:39:21;100207.98;;;18.64;95.91
47913;BME280;33676;51.006;17.180;2023-06-26T05:41:51;100202.17;;;18.74;95.77
47913;BME280;33676;51.006;17.180;2023-06-26T05:44:19;100198.39;;;18.86;95.77
47913;BME280;33676;51.006;17.180;2023-06-26T05:46:48;100198.95;;;18.98;95.74
47913;BME280;33676;51.006;17.180;2023-06-26T05:49:16;100195.84;;;19.08;95.74
47913;BME280;33676;51.006;17.180;2023-06-26T05:51:45;100194.21;;;19.19;95.93
47913;BME280;33676;51.006;17.180;2023-06-26T05:54:14;100191.47;;;19.30;95.74
47913;BME280;33676;51.006;17.180;2023-06-26T05:56:42;100193.23;;;19.41;95.69
47913;BME280;33676;51.006;17.180;2023-06-26T05:59:11;100195.22;;;19.51;95.56
47913;BME280;33676;51.006;17.180;2023-06-26T06:01:40;100198.77;;;19.62;95.63
47913;BME280;33676;51.006;17.180;2023-06-26T06:04:09;100197.29;;;19.71;95.56
47913;BME280;33676;51.006;17.180;2023-06-26T06:06:37;100198.23;;;19.83;95.63
47913;BME280;33676;51.006;17.180;2023-06-26T06:09:05;100199.73;;;19.94;95.71
47913;BME280;33676;51.006;17.180;2023-06-26T06:11:34;100199.73;;;20.03;95.55
47913;BME280;33676;51.006;17.180;2023-06-26T06:14:02;100201.98;;;20.12;95.43
47913;BME280;33676;51.006;17.180;2023-06-26T06:16:31;100200.25;;;20.22;95.57
47913;BME280;33676;51.006;17.180;2023-06-26T06:18:59;100200.52;;;20.33;95.47
47913;BME280;33676;51.006;17.180;2023-06-26T06:21:28;100198.33;;;20.42;95.50
47913;BME280;33676;51.006;17.180;2023-06-26T06:23:56;100200.06;;;20.53;96.15
47913;BME280;33676;51.006;17.180;2023-06-26T06:26:24;100201.88;;;20.75;97.16
47913;BME280;33676;51.006;17.180;2023-06-26T06:28:53;100204.36;;;20.99;97.62
47913;BME280;33676;51.006;17.180;2023-06-26T06:31:21;100203.48;;;21.16;97.34
47913;BME280;33676;51.006;17.180;2023-06-26T06:33:50;100200.78;;;21.32;96.96
47913;BME280;33676;51.006;17.180;2023-06-26T06:36:18;100200.46;;;21.47;96.81
47913;BME280;33676;51.006;17.180;2023-06-26T06:38:47;100205.50;;;21.64;96.43
47913;BME280;33676;51.006;17.180;2023-06-26T06:41:15;100204.83;;;21.79;96.49
47913;BME280;33676;51.006;17.180;2023-06-26T06:43:44;100203.81;;;21.98;96.64
47913;BME280;33676;51.006;17.180;2023-06-26T06:46:13;100206.96;;;22.17;96.47
47913;BME280;33676;51.006;17.180;2023-06-26T06:48:41;100207.75;;;22.30;95.89
47913;BME280;33676;51.006;17.180;2023-06-26T06:51:09;100200.79;;;22.39;95.35
47913;BME280;33676;51.006;17.180;2023-06-26T06:53:38;100205.08;;;22.51;95.12
47913;BME280;33676;51.006;17.180;2023-06-26T06:56:06;100204.30;;;22.61;94.73
47913;BME280;33676;51.006;17.180;2023-06-26T06:58:35;100200.14;;;22.68;94.18
47913;BME280;33676;51.006;17.180;2023-06-26T07:01:04;100203.49;;;22.75;93.53
47913;BME280;33676;51.006;17.180;2023-06-26T07:03:32;100198.29;;;22.84;93.17
47913;BME280;33676;51.006;17.180;2023-06-26T07:06:02;100193.07;;;22.93;93.21
47913;BME280;33676;51.006;17.180;2023-06-26T07:08:31;100194.25;;;23.03;93.09
47913;BME280;33676;51.006;17.180;2023-06-26T07:11:00;100197.04;;;23.13;92.73
47913;BME280;33676;51.006;17.180;2023-06-26T07:13:29;100195.73;;;23.22;92.25
47913;BME280;33676;51.006;17.180;2023-06-26T07:15:58;100191.64;;;23.30;92.04
47913;BME280;33676;51.006;17.180;2023-06-26T07:18:26;100190.42;;;23.40;92.02
47913;BME280;33676;51.006;17.180;2023-06-26T07:20:55;100189.95;;;23.53;92.07
47913;BME280;33676;51.006;17.180;2023-06-26T07:23:23;100191.99;;;23.63;91.77
47913;BME280;33676;51.006;17.180;2023-06-26T07:25:52;100195.58;;;23.72;91.24
47913;BME280;33676;51.006;17.180;2023-06-26T07:28:20;100192.85;;;23.78;90.84
47913;BME280;33676;51.006;17.180;2023-06-26T07:30:48;100188.03;;;23.83;90.42
47913;BME280;33676;51.006;17.180;2023-06-26T07:33:17;100187.31;;;23.91;90.38
47913;BME280;33676;51.006;17.180;2023-06-26T07:35:45;100184.52;;;24.00;90.08
47913;BME280;33676;51.006;17.180;2023-06-26T07:38:13;100183.81;;;24.03;88.82
47913;BME280;33676;51.006;17.180;2023-06-26T07:40:42;100178.16;;;24.05;88.37
47913;BME280;33676;51.006;17.180;2023-06-26T07:43:11;100177.88;;;24.08;88.05
47913;BME280;33676;51.006;17.180;2023-06-26T07:45:39;100178.94;;;24.14;87.56
47913;BME280;33676;51.006;17.180;2023-06-26T07:48:08;100180.03;;;24.23;87.62
47913;BME280;33676;51.006;17.180;2023-06-26T07:50:37;100182.59;;;24.32;87.48
47913;BME280;33676;51.006;17.180;2023-06-26T07:53:06;100183.11;;;24.38;87.19
47913;BME280;33676;51.006;17.180;2023-06-26T07:55:35;100182.08;;;24.43;86.68
47913;BME280;33676;51.006;17.180;2023-06-26T07:58:03;100184.85;;;24.47;86.46
47913;BME280;33676;51.006;17.180;2023-06-26T08:00:32;100183.09;;;24.56;86.55
47913;BME280;33676;51.006;17.180;2023-06-26T08:03:00;100180.33;;;24.66;86.24
47913;BME280;33676;51.006;17.180;2023-06-26T08:05:29;100177.58;;;24.72;85.88
47913;BME280;33676;51.006;17.180;2023-06-26T08:07:58;100179.58;;;24.85;85.78
47913;BME280;33676;51.006;17.180;2023-06-26T08:10:28;100180.65;;;25.00;86.05
47913;BME280;33676;51.006;17.180;2023-06-26T08:12:57;100183.36;;;25.10;85.24
47913;BME280;33676;51.006;17.180;2023-06-26T08:15:26;100182.63;;;25.16;84.47
47913;BME280;33676;51.006;17.180;2023-06-26T08:17:55;100180.80;;;25.18;83.82
47913;BME280;33676;51.006;17.180;2023-06-26T08:20:23;100177.92;;;25.22;83.91
47913;BME280;33676;51.006;17.180;2023-06-26T08:22:52;100173.70;;;25.34;84.21
47913;BME280;33676;51.006;17.180;2023-06-26T08:25:22;100174.95;;;25.44;83.67
47913;BME280;33676;51.006;17.180;2023-06-26T08:27:51;100168.67;;;25.44;82.31
47913;BME280;33676;51.006;17.180;2023-06-26T08:30:21;100167.77;;;25.44;82.05
47913;BME280;33676;51.006;17.180;2023-06-26T08:32:50;100165.67;;;25.46;81.74
47913;BME280;33676;51.006;17.180;2023-06-26T08:35:19;100168.27;;;25.51;81.57
47913;BME280;33676;51.006;17.180;2023-06-26T08:37:48;100166.89;;;25.58;80.97
47913;BME280;33676;51.006;17.180;2023-06-26T08:40:17;100167.55;;;25.66;80.84
47913;BME280;33676;51.006;17.180;2023-06-26T08:42:49;100164.48;;;25.76;80.37
47913;BME280;33676;51.006;17.180;2023-06-26T08:45:21;100163.94;;;25.86;79.55
47913;BME280;33676;51.006;17.180;2023-06-26T08:47:53;100165.98;;;25.93;78.76
47913;BME280;33676;51.006;17.180;2023-06-26T08:50:23;100167.06;;;25.96;78.21
47913;BME280;33676;51.006;17.180;2023-06-26T08:53:01;100162.46;;;25.99;77.75
47913;BME280;33676;51.006;17.180;2023-06-26T08:55:35;100160.55;;;26.03;76.93
47913;BME280;33676;51.006;17.180;2023-06-26T08:58:06;100155.65;;;26.09;77.10
47913;BME280;33676;51.006;17.180;2023-06-26T09:00:34;100155.42;;;26.23;77.54
47913;BME280;33676;51.006;17.180;2023-06-26T09:03:04;100149.11;;;26.38;77.60
47913;BME280;33676;51.006;17.180;2023-06-26T09:05:33;100148.59;;;26.48;76.90
47913;BME280;33676;51.006;17.180;2023-06-26T09:08:02;100144.05;;;26.54;76.18
47913;BME280;33676;51.006;17.180;2023-06-26T09:10:31;100148.21;;;26.65;76.32
47913;BME280;33676;51.006;17.180;2023-06-26T09:13:00;100151.03;;;26.77;75.56
47913;BME280;33676;51.006;17.180;2023-06-26T09:15:44;100147.13;;;26.84;74.36
47913;BME280;33676;51.006;17.180;2023-06-26T09:18:17;100146.27;;;26.98;74.02
47913;BME280;33676;51.006;17.180;2023-06-26T09:20:48;100144.31;;;27.15;73.56
47913;BME280;33676;51.006;17.180;2023-06-26T09:23:18;100143.56;;;27.31;73.18
47913;BME280;33676;51.006;17.180;2023-06-26T09:25:47;100141.73;;;27.47;72.77
47913;BME280;33676;51.006;17.180;2023-06-26T09:28:16;100136.40;;;27.60;72.50
47913;BME280;33676;51.006;17.180;2023-06-26T09:30:45;100136.66;;;27.67;71.37
47913;BME280;33676;51.006;17.180;2023-06-26T09:33:16;100138.02;;;27.70;70.76
47913;BME280;33676;51.006;17.180;2023-06-26T09:35:45;100137.60;;;27.73;70.43
47913;BME280;33676;51.006;17.180;2023-06-26T09:38:14;100132.59;;;27.77;69.96
47913;BME280;33676;51.006;17.180;2023-06-26T09:40:46;100132.06;;;27.85;69.83
47913;BME280;33676;51.006;17.180;2023-06-26T09:43:15;100129.35;;;27.91;69.34
47913;BME280;33676;51.006;17.180;2023-06-26T09:45:44;100129.41;;;27.96;69.11
47913;BME280;33676;51.006;17.180;2023-06-26T09:48:13;100126.39;;;28.05;68.59
47913;BME280;33676;51.006;17.180;2023-06-26T09:50:42;100127.09;;;28.10;68.23
47913;BME280;33676;51.006;17.180;2023-06-26T09:53:28;100123.07;;;28.21;68.23
47913;BME280;33676;51.006;17.180;2023-06-26T09:55:57;100124.02;;;28.46;68.65
47913;BME280;33676;51.006;17.180;2023-06-26T09:58:27;100123.27;;;28.72;68.51
47913;BME280;33676;51.006;17.180;2023-06-26T10:00:56;100125.77;;;28.87;67.68
47913;BME280;33676;51.006;17.180;2023-06-26T10:03:25;100122.27;;;29.03;67.07
47913;BME280;33676;51.006;17.180;2023-06-26T10:05:54;100114.41;;;29.21;66.66
47913;BME280;33676;51.006;17.180;2023-06-26T10:08:23;100111.02;;;29.49;67.91
47913;BME280;33676;51.006;17.180;2023-06-26T10:10:52;100110.31;;;29.90;68.55
47913;BME280;33676;51.006;17.180;2023-06-26T10:13:34;100111.89;;;30.34;68.72
47913;BME280;33676;51.006;17.180;2023-06-26T10:16:03;100107.77;;;30.71;67.87
47913;BME280;33676;51.006;17.180;2023-06-26T10:18:36;100106.34;;;30.93;66.95
47913;BME280;33676;51.006;17.180;2023-06-26T10:21:08;100106.56;;;31.06;65.52
47913;BME280;33676;51.006;17.180;2023-06-26T10:23:38;100106.57;;;31.05;64.59
47913;BME280;33676;51.006;17.180;2023-06-26T10:26:08;100107.15;;;31.04;63.36
47913;BME280;33676;51.006;17.180;2023-06-26T10:28:38;100103.09;;;30.98;62.39
47913;BME280;33676;51.006;17.180;2023-06-26T10:31:09;100099.34;;;30.96;61.86
47913;BME280;33676;51.006;17.180;2023-06-26T10:33:38;100092.12;;;31.07;62.11
47913;BME280;33676;51.006;17.180;2023-06-26T10:36:28;100089.05;;;31.22;61.96
47913;BME280;33676;51.006;17.180;2023-06-26T10:39:04;100093.11;;;31.30;61.75
47913;BME280;33676;51.006;17.180;2023-06-26T10:41:41;100089.95;;;31.27;60.82
47913;BME280;33676;51.006;17.180;2023-06-26T10:44:40;100086.52;;;31.31;60.88
47913;BME280;33676;51.006;17.180;2023-06-26T10:47:12;100083.67;;;31.37;60.57
47913;BME280;33676;51.006;17.180;2023-06-26T10:50:06;100086.95;;;31.48;60.64
47913;BME280;33676;51.006;17.180;2023-06-26T10:58:42;100082.77;;;31.92;59.86
47913;BME280;33676;51.006;17.180;2023-06-26T11:01:26;100086.02;;;32.06;59.10
47913;BME280;33676;51.006;17.180;2023-06-26T11:04:04;100083.39;;;32.11;59.30
47913;BME280;33676;51.006;17.180;2023-06-26T11:06:35;100079.92;;;32.27;59.51
47913;BME280;33676;51.006;17.180;2023-06-26T11:09:13;100083.17;;;32.45;58.77
47913;BME280;33676;51.006;17.180;2023-06-26T11:14:21;100072.11;;;32.52;58.48
47913;BME280;33676;51.006;17.180;2023-06-26T11:16:50;100074.70;;;32.83;59.11
47913;BME280;33676;51.006;17.180;2023-06-26T11:19:19;100075.10;;;32.88;57.32
47913;BME280;33676;51.006;17.180;2023-06-26T11:21:48;100070.69;;;32.83;57.20
47913;BME280;33676;51.006;17.180;2023-06-26T11:24:17;100069.45;;;32.96;56.61
47913;BME280;33676;51.006;17.180;2023-06-26T11:26:46;100066.90;;;32.95;55.83
47913;BME280;33676;51.006;17.180;2023-06-26T11:29:14;100064.83;;;33.04;56.00
47913;BME280;33676;51.006;17.180;2023-06-26T11:31:46;100061.67;;;33.10;55.65
47913;BME280;33676;51.006;17.180;2023-06-26T11:34:14;100060.09;;;33.20;55.31
47913;BME280;33676;51.006;17.180;2023-06-26T11:36:43;100056.61;;;33.23;54.94
47913;BME280;33676;51.006;17.180;2023-06-26T11:39:14;100056.50;;;33.26;54.82
47913;BME280;33676;51.006;17.180;2023-06-26T11:41:45;100049.59;;;33.29;55.02
47913;BME280;33676;51.006;17.180;2023-06-26T11:44:13;100046.68;;;33.45;54.72
47913;BME280;33676;51.006;17.180;2023-06-26T11:46:43;100048.13;;;33.54;54.80
47913;BME280;33676;51.006;17.180;2023-06-26T11:49:12;100044.63;;;33.62;54.32
47913;BME280;33676;51.006;17.180;2023-06-26T11:51:40;100042.20;;;33.72;54.22
47913;BME280;33676;51.006;17.180;2023-06-26T11:54:09;100040.99;;;33.88;54.22
47913;BME280;33676;51.006;17.180;2023-06-26T11:56:37;100041.00;;;33.98;53.33
47913;BME280;33676;51.006;17.180;2023-06-26T11:59:08;100038.58;;;33.95;53.56
47913;BME280;33676;51.006;17.180;2023-06-26T12:01:43;100039.21;;;34.08;53.57
47913;BME280;33676;51.006;17.180;2023-06-26T12:04:16;100036.70;;;34.12;52.85
47913;BME280;33676;51.006;17.180;2023-06-26T12:06:50;100032.66;;;34.12;52.69
47913;BME280;33676;51.006;17.180;2023-06-26T12:09:19;100027.38;;;34.14;52.73
47913;BME280;33676;51.006;17.180;2023-06-26T12:11:53;100027.20;;;34.15;52.50
47913;BME280;33676;51.006;17.180;2023-06-26T12:14:24;100021.36;;;34.19;52.67
47913;BME280;33676;51.006;17.180;2023-06-26T12:16:54;100021.48;;;34.16;51.95
47913;BME280;33676;51.006;17.180;2023-06-26T12:19:25;100018.65;;;34.08;51.60
47913;BME280;33676;51.006;17.180;2023-06-26T12:21:55;100017.75;;;34.03;51.81
47913;BME280;33676;51.006;17.180;2023-06-26T12:24:24;100012.23;;;34.08;51.65
47913;BME280;33676;51.006;17.180;2023-06-26T12:26:54;100008.38;;;34.05;51.43
47913;BME280;33676;51.006;17.180;2023-06-26T12:29:32;100008.58;;;33.97;51.73
47913;BME280;33676;51.006;17.180;2023-06-26T12:32:01;100007.10;;;34.00;51.76
47913;BME280;33676;51.006;17.180;2023-06-26T12:34:36;100002.60;;;34.06;52.23
47913;BME280;33676;51.006;17.180;2023-06-26T12:37:10;100000.53;;;34.26;52.53
47913;BME280;33676;51.006;17.180;2023-06-26T12:39:51;99999.73;;;34.39;52.78
47913;BME280;33676;51.006;17.180;2023-06-26T12:42:24;99995.41;;;34.56;52.60
47913;BME280;33676;51.006;17.180;2023-06-26T12:44:54;99992.48;;;34.62;52.11
47913;BME280;33676;51.006;17.180;2023-06-26T12:47:28;99990.90;;;34.61;51.87
47913;BME280;33676;51.006;17.180;2023-06-26T12:50:05;99990.27;;;34.72;52.09
47913;BME280;33676;51.006;17.180;2023-06-26T12:52:34;99989.52;;;34.79;51.88
47913;BME280;33676;51.006;17.180;2023-06-26T12:55:02;99984.30;;;34.88;52.15
47913;BME280;33676;51.006;17.180;2023-06-26T12:57:31;99988.78;;;35.04;52.08
47913;BME280;33676;51.006;17.180;2023-06-26T12:59:59;99985.95;;;35.10;51.26
47913;BME280;33676;51.006;17.180;2023-06-26T13:02:30;99979.89;;;35.16;51.33
47913;BME280;33676;51.006;17.180;2023-06-26T13:04:59;99973.84;;;35.21;51.60
47913;BME280;33676;51.006;17.180;2023-06-26T13:07:27;99975.27;;;35.31;51.58
47913;BME280;33676;51.006;17.180;2023-06-26T13:09:56;99975.77;;;35.30;50.75
47913;BME280;33676;51.006;17.180;2023-06-26T13:12:25;99970.55;;;35.26;50.62
47913;BME280;33676;51.006;17.180;2023-06-26T13:14:53;99965.58;;;35.28;51.07
47913;BME280;33676;51.006;17.180;2023-06-26T13:17:22;99959.64;;;35.42;50.87